createdAt,value
2022-12-05T00:05:09.203Z,3.12
2022-12-05T00:11:32.278Z,3.1
2022-12-05T00:17:52.212Z,3.09
2022-12-05T00:24:15.216Z,3.04
2022-12-05T00:30:35.195Z,3
2022-12-05T00:36:58.246Z,2.99
2022-12-05T00:43:18.204Z,3.04
2022-12-05T00:49:41.251Z,3.09
2022-12-05T00:56:01.172Z,3.12
2022-12-05T01:02:24.157Z,3.05
2022-12-05T01:08:44.224Z,2.92
2022-12-05T01:15:07.362Z,2.79
2022-12-05T01:21:27.245Z,2.71
2022-12-05T01:27:50.190Z,2.63
2022-12-05T01:34:10.237Z,2.57
2022-12-05T01:40:33.213Z,2.59
2022-12-05T01:46:53.232Z,2.6
2022-12-05T01:53:16.236Z,2.58
2022-12-05T01:59:36.169Z,2.54
2022-12-05T02:05:59.254Z,2.49
2022-12-05T02:12:19.199Z,2.4
2022-12-05T02:18:42.248Z,2.32
2022-12-05T02:25:02.208Z,2.19
2022-12-05T02:31:25.421Z,2.04
2022-12-05T02:37:45.207Z,1.97
2022-12-05T02:44:08.200Z,1.95
2022-12-05T02:50:28.183Z,1.91
2022-12-05T02:56:51.271Z,1.87
2022-12-05T03:03:11.161Z,1.83
2022-12-05T03:09:34.226Z,1.84
2022-12-05T03:15:54.130Z,1.83
2022-12-05T03:22:17.185Z,1.84
2022-12-05T03:28:37.178Z,1.85
2022-12-05T03:35:00.224Z,1.84
2022-12-05T03:41:20.158Z,1.81
2022-12-05T03:47:43.227Z,1.81
2022-12-05T03:54:03.179Z,1.83
2022-12-05T04:00:26.206Z,1.84
2022-12-05T04:06:46.194Z,1.86
2022-12-05T04:22:20.092Z,1.91
2022-12-05T04:28:40.224Z,1.89
2022-12-05T04:35:03.178Z,1.85
2022-12-05T04:41:23.161Z,1.87
2022-12-05T04:47:46.199Z,1.87
2022-12-05T04:54:06.252Z,1.88
2022-12-05T05:00:29.232Z,1.9
2022-12-05T05:06:49.187Z,1.9
2022-12-05T05:13:12.453Z,1.85
2022-12-05T05:19:32.195Z,1.8
2022-12-05T05:25:55.140Z,1.76
2022-12-05T05:32:15.185Z,1.67
2022-12-05T05:38:38.222Z,1.66
2022-12-05T05:44:58.211Z,1.67
2022-12-05T05:51:21.238Z,1.66
2022-12-05T05:57:41.203Z,1.66
2022-12-05T06:04:04.332Z,1.66
2022-12-05T06:10:24.229Z,1.65
2022-12-05T06:16:47.279Z,1.65
2022-12-05T06:23:07.244Z,1.59
2022-12-05T06:29:33.762Z,1.58
2022-12-05T06:35:50.230Z,1.61
2022-12-05T06:42:13.208Z,1.64
2022-12-05T06:48:33.253Z,1.67
2022-12-05T06:54:56.273Z,1.67
2022-12-05T07:01:16.224Z,1.69
2022-12-05T07:07:39.184Z,1.74
2022-12-05T07:13:59.181Z,1.79
2022-12-05T07:20:22.160Z,1.83
2022-12-05T07:26:42.197Z,1.84
2022-12-05T07:33:05.289Z,1.84
2022-12-05T07:39:25.179Z,1.83
2022-12-05T07:45:48.306Z,1.85
2022-12-05T07:52:08.208Z,1.85
2022-12-05T07:58:31.255Z,1.85
2022-12-05T08:04:51.275Z,1.82
2022-12-05T08:11:14.241Z,1.78
2022-12-05T08:17:34.176Z,1.8
2022-12-05T08:23:57.237Z,1.87
2022-12-05T08:30:17.182Z,1.96
2022-12-05T08:36:40.182Z,2.04
2022-12-05T08:43:00.190Z,2.07
2022-12-05T08:49:23.321Z,2.13
2022-12-05T08:55:43.238Z,2.18
2022-12-05T09:02:06.262Z,2.18
2022-12-05T09:08:26.315Z,2.18
2022-12-05T09:14:49.240Z,2.23
2022-12-05T09:31:14.217Z,2.24
2022-12-05T09:37:41.387Z,2.22
2022-12-05T09:43:57.156Z,2.2
2022-12-05T09:50:17.201Z,2.23
2022-12-05T09:56:40.226Z,2.3
2022-12-05T10:03:00.225Z,2.36
2022-12-05T10:09:23.450Z,2.42
2022-12-05T10:15:45.663Z,2.47
2022-12-05T10:22:06.181Z,2.55
2022-12-05T10:28:26.206Z,2.61
2022-12-05T10:34:49.205Z,2.62
2022-12-05T10:41:09.445Z,2.71
2022-12-05T10:47:32.554Z,2.77
2022-12-05T10:53:52.634Z,2.81
2022-12-05T11:00:15.176Z,2.88
2022-12-05T11:06:35.260Z,2.95
2022-12-05T11:12:58.226Z,2.95
2022-12-05T11:19:18.475Z,2.9
2022-12-05T11:25:41.387Z,2.9
2022-12-05T11:32:01.263Z,2.92
2022-12-05T11:38:24.219Z,2.97
2022-12-05T11:44:44.172Z,2.98
2022-12-05T11:51:07.173Z,2.94
2022-12-05T11:57:27.252Z,2.93
2022-12-05T12:03:50.324Z,3.04
2022-12-05T12:10:10.422Z,3.11
2022-12-05T12:16:33.249Z,3.16
2022-12-05T12:22:53.527Z,3.19
2022-12-05T12:29:16.292Z,3.18
2022-12-05T12:35:36.243Z,3.11
2022-12-05T12:41:59.205Z,3.03
2022-12-05T12:48:19.223Z,3.03
2022-12-05T12:55:05.824Z,3.07
2022-12-05T13:01:02.335Z,3.13
2022-12-05T13:07:25.278Z,3.18
2022-12-05T13:13:45.905Z,3.17
2022-12-05T13:20:09.464Z,3.24
2022-12-05T13:26:29.186Z,3.36
2022-12-05T13:32:52.220Z,3.37
2022-12-05T13:39:12.157Z,3.29
2022-12-05T13:45:35.238Z,3.22
2022-12-05T13:51:55.307Z,3.19
2022-12-05T13:58:18.192Z,3.16
2022-12-05T14:04:38.181Z,3.17
2022-12-05T14:11:01.514Z,3.18
2022-12-05T14:35:45.165Z,3.17
2022-12-05T14:42:05.387Z,3.18
2022-12-05T14:48:28.207Z,3.18
2022-12-05T14:54:48.211Z,3.13
2022-12-05T15:01:11.277Z,3.07
2022-12-05T15:07:31.880Z,2.99
2022-12-05T15:13:55.384Z,2.94
2022-12-05T15:20:15.226Z,2.9
2022-12-05T15:26:47.570Z,2.86
2022-12-05T15:32:59.737Z,2.85
2022-12-05T15:39:21.437Z,2.8
2022-12-05T15:45:41.157Z,2.77
2022-12-05T15:52:04.182Z,2.78
2022-12-05T15:58:24.149Z,2.75
2022-12-05T16:04:47.177Z,2.73
2022-12-05T16:11:07.159Z,2.73
2022-12-05T16:17:30.210Z,2.71
2022-12-05T16:23:50.154Z,2.69
2022-12-05T16:30:13.192Z,2.67
2022-12-05T16:36:33.286Z,2.66
2022-12-05T16:42:56.142Z,2.65
2022-12-05T16:49:16.212Z,2.6
2022-12-05T16:55:39.246Z,2.57
2022-12-05T17:01:59.239Z,2.49
2022-12-05T17:08:22.327Z,2.41
2022-12-05T17:14:42.173Z,2.35
2022-12-05T17:21:05.226Z,2.3
2022-12-05T17:27:25.251Z,2.29
2022-12-05T17:33:48.281Z,2.25
2022-12-05T17:40:08.282Z,2.18
2022-12-05T17:46:31.256Z,2.14
2022-12-05T17:52:51.251Z,2.14
2022-12-05T17:59:14.212Z,2.11
2022-12-05T18:05:34.197Z,2.07
2022-12-05T18:11:57.164Z,2.07
2022-12-05T18:18:17.312Z,2.08
2022-12-05T18:24:40.290Z,2.09
2022-12-05T18:31:00.174Z,2.08
2022-12-05T18:37:23.150Z,2.08
2022-12-05T18:43:43.198Z,2.04
2022-12-05T18:50:06.152Z,2.02
2022-12-05T18:56:26.721Z,1.98
2022-12-05T19:02:49.374Z,1.96
2022-12-05T19:09:09.158Z,1.96
2022-12-05T19:15:32.167Z,1.98
2022-12-05T19:21:52.359Z,2.01
2022-12-05T19:28:15.170Z,2.03
2022-12-05T19:45:43.165Z,1.94
2022-12-05T19:52:06.138Z,1.94
2022-12-05T19:58:26.174Z,1.97
2022-12-05T20:04:49.166Z,1.99
2022-12-05T20:11:09.153Z,2.03
2022-12-05T20:17:32.278Z,2.07
2022-12-05T20:23:52.202Z,2.05
2022-12-05T20:30:15.162Z,2.02
2022-12-05T20:36:35.271Z,2.04
2022-12-05T20:42:58.304Z,2.06
2022-12-05T20:49:18.254Z,2.13
2022-12-05T20:55:41.173Z,2.22
2022-12-05T21:02:01.287Z,2.24
2022-12-05T21:08:24.147Z,2.26
2022-12-05T21:14:44.334Z,2.2
2022-12-05T21:21:07.306Z,2.17
2022-12-05T21:27:27.217Z,2.21
2022-12-05T21:33:50.230Z,2.21
2022-12-05T21:40:10.309Z,2.18
2022-12-05T21:46:33.254Z,2.15
2022-12-05T21:52:53.237Z,2.19
2022-12-05T21:59:16.242Z,2.16
2022-12-05T22:05:36.272Z,2.12
2022-12-05T22:11:59.261Z,2.11
2022-12-05T22:18:19.184Z,2.07
2022-12-05T22:24:42.191Z,2.06
2022-12-05T22:31:02.326Z,2.05
2022-12-05T22:37:25.240Z,2.04
2022-12-05T22:43:45.264Z,2.03
2022-12-05T22:50:08.226Z,2.02
2022-12-05T22:56:28.255Z,2.02
2022-12-05T23:20:46.185Z,2.08
2022-12-05T23:27:06.131Z,2.08
2022-12-05T23:33:29.184Z,2.12
2022-12-05T23:39:49.198Z,2.17
2022-12-05T23:46:12.283Z,2.15
2022-12-05T23:52:32.279Z,2.13
2022-12-05T23:58:55.216Z,2.14
